Agia Marina — SX5375 — position and weather

sailwx.info

Track history (hours):
 
Tides and Currents Weather Stations Pressure Air Temp Water Temp Dewpoint Dewpoint Depression Visibility Wind Speed Wind Dir Waves Ship Positions

Agia Marina

Last reported at 2015-Jul-01 14:33 UTC. Time now 2015-Jul-01 15:15 UTC.
Position N 36°03' E 026°23'.

Length 59 m; draft 2.5 m.

Type: Cargo ship. MMSI: 237042500.

Date/timePositionNaut miles runAvg speedWind from/ knotsBaromVisibWave heightAir tempDewpointWater temp
2015-Jul-01 14:33N 36°03' E 026°23'7 7.1
2015-Jul-01 13:33N 36°10' E 026°21'8 6.8
2015-Jul-01 12:18N 36°18' E 026°18'5 6.6
2015-Jul-01 11:33N 36°23' E 026°17'7 6.7
2015-Jul-01 10:33N 36°30' E 026°16'7 6.7
2015-Jul-01 09:33N 36°36' E 026°16'1 0.2
2015-Jul-01 04:32N 36°37' E 026°16'6 6.6
2015-Jul-01 03:33N 36°40' E 026°08'7 6.7
2015-Jul-01 02:32N 36°42' E 026°00'6 6.5
2015-Jul-01 01:32N 36°42' E 025°52'6 6.5
2015-Jul-01 00:33N 36°44' E 025°44'7 6.6
2015-Jun-30 23:33N 36°47' E 025°37'7 6.6
2015-Jun-30 22:33N 36°51' E 025°30'4 3.4
2015-Jun-30 21:28N 36°52' E 025°26'27 6.6
2015-Jun-30 17:21N 36°37' E 024°57'0 0.2
2015-Jun-30 16:32N 36°37' E 024°57'0 0.0
2015-Jun-30 15:31N 36°37' E 024°57'4 4.6
2015-Jun-30 14:33N 36°40' E 024°53'25 0.6
2015-Jun-28 21:07N 37°04' E 024°42'10 6.4
2015-Jun-28 19:33N 37°04' E 024°54'6 6.2
2015-Jun-28 18:33N 37°05' E 025°02'6 5.5
2015-Jun-28 17:33N 37°05' E 025°09'0 0.4
2015-Jun-28 16:33N 37°06' E 025°09'0 0.0
2015-Jun-28 15:33N 37°06' E 025°09'0 0.5
2015-Jun-28 14:32N 37°05' E 025°09'0 0.0
2015-Jun-28 13:32N 37°05' E 025°09'0 0.0
2015-Jun-28 12:28N 37°05' E 025°09'0 0.0
2015-Jun-28 11:25N 37°05' E 025°09'0 0.2
2015-Jun-28 10:33N 37°05' E 025°09'5 4.8
2015-Jun-28 09:33N 37°09' E 025°12'5 5.5
2015-Jun-28 08:33N 37°09' E 025°19'4 3.6
2015-Jun-28 07:33N 37°06' E 025°22'0 0.2
2015-Jun-28 06:33N 37°06' E 025°22'0 0.3
2015-Jun-28 05:33N 37°06' E 025°22'0 0.3
2015-Jun-28 04:33N 37°06' E 025°22'2 1.7
2015-Jun-28 03:33N 37°07' E 025°21'6 6.4
2015-Jun-28 02:33N 37°12' E 025°15'6 6.3
2015-Jun-28 01:33N 37°16' E 025°09'6 6.1
2015-Jun-28 00:33N 37°21' E 025°04'6 6.5
2015-Jun-27 23:33N 37°25' E 024°58'2 1.6
2015-Jun-27 22:33N 37°26' E 024°56'0 0.0
2015-Jun-27 21:32N 37°26' E 024°56'0 0.0
2015-Jun-27 20:33N 37°26' E 024°56'0 0.0
2015-Jun-27 19:33N 37°26' E 024°56'0 0.0
2015-Jun-27 18:33N 37°26' E 024°56'0 0.0
2015-Jun-27 17:34N 37°26' E 024°56'0 0.0
2015-Jun-27 16:33N 37°26' E 024°56'0 0.0
2015-Jun-27 15:33N 37°26' E 024°56'0 0.0
2015-Jun-27 14:33N 37°26' E 024°56'0 0.0
2015-Jun-27 13:33N 37°26' E 024°56'0 0.0
2015-Jun-27 12:33N 37°26' E 024°56'0 0.0
2015-Jun-27 11:33N 37°26' E 024°56'0 0.0
2015-Jun-27 10:33N 37°26' E 024°56'2 1.8
2015-Jun-27 09:33N 37°27' E 024°58'6 5.8
2015-Jun-27 08:33N 37°30' E 025°04'5 4.6
2015-Jun-27 07:33N 37°32' E 025°09'0 0.0
2015-Jun-27 06:33N 37°32' E 025°09'0 0.0
2015-Jun-27 05:33N 37°32' E 025°09'0 0.0
2015-Jun-27 04:33N 37°32' E 025°09'0 0.0
2015-Jun-27 03:33N 37°32' E 025°09'0 0.0
2015-Jun-27 02:33N 37°32' E 025°09'0 0.0
2015-Jun-27 01:33N 37°32' E 025°09'0 0.0
2015-Jun-27 00:33N 37°32' E 025°09'0 0.0
2015-Jun-26 23:33N 37°32' E 025°09'1 0.7
2015-Jun-26 22:33N 37°32' E 025°09'6 6.3
2015-Jun-26 21:33N 37°36' E 025°02'7 6.9
2015-Jun-26 20:33N 37°41' E 024°56'57 2.2
2015-Jun-25 18:33N 37°38' E 023°44'6 6.2
2015-Jun-25 17:33N 37°39' E 023°36'10 1.6
2015-Jun-25 11:15N 37°45' E 023°26'2 2.5
2015-Jun-25 10:33N 37°46' E 023°26'7 6.5
2015-Jun-25 09:33N 37°51' E 023°32'7 6.5
2015-Jun-25 08:33N 37°57' E 023°35'5 4.9
2015-Jun-25 07:33N 38°02' E 023°35'0 0.2
2015-Jun-25 06:33N 38°02' E 023°36'0 0.0
2015-Jun-25 05:33N 38°02' E 023°36'0 0.0
2015-Jun-25 04:33N 38°02' E 023°36'0 0.0
2015-Jun-25 03:33N 38°02' E 023°36'0 0.0
2015-Jun-25 02:33N 38°02' E 023°36'0 0.0
2015-Jun-25 01:33N 38°02' E 023°36'0 0.0
2015-Jun-25 00:33N 38°02' E 023°36'0 0.0
2015-Jun-24 23:33N 38°02' E 023°36'0 0.0
2015-Jun-24 22:30N 38°02' E 023°36'0 0.0
2015-Jun-24 21:33N 38°02' E 023°36'0 0.0
2015-Jun-24 20:33N 38°02' E 023°36'0 0.0
2015-Jun-24 19:33N 38°02' E 023°36'0 0.0
2015-Jun-24 18:33N 38°02' E 023°36'0 0.0
2015-Jun-24 17:33N 38°02' E 023°36'0 0.0
2015-Jun-24 16:33N 38°02' E 023°36'0 0.0
2015-Jun-24 15:33N 38°02' E 023°36'0 0.0
2015-Jun-24 14:33N 38°02' E 023°36'0 0.0
2015-Jun-24 13:33N 38°02' E 023°36'0 0.0
2015-Jun-24 12:33N 38°02' E 023°36'0 0.0
2015-Jun-24 11:33N 38°02' E 023°36'0 0.0
2015-Jun-24 10:33N 38°02' E 023°36'0 0.0
2015-Jun-24 09:33N 38°02' E 023°36'0 0.0
2015-Jun-24 08:33N 38°02' E 023°36'0 0.0
2015-Jun-24 07:33N 38°02' E 023°36'0 0.0
2015-Jun-24 06:33N 38°02' E 023°36'0 0.0
2015-Jun-24 05:33N 38°02' E 023°36'0 0.0
2015-Jun-24 04:33N 38°02' E 023°36'0 0.0
2015-Jun-24 03:33N 38°02' E 023°36'0 0.0
2015-Jun-24 02:33N 38°02' E 023°36'0 0.0
2015-Jun-24 01:33N 38°02' E 023°36'0 0.0
2015-Jun-24 00:33N 38°02' E 023°36'0 0.0
2015-Jun-23 23:33N 38°02' E 023°36'0 0.0
2015-Jun-23 22:33N 38°02' E 023°36'0 0.0
2015-Jun-23 21:33N 38°02' E 023°36'0 0.0
2015-Jun-23 20:33N 38°02' E 023°36'0 0.0
2015-Jun-23 19:30N 38°02' E 023°36'0 0.0
2015-Jun-23 19:05N 38°02' E 023°36'0 0.0
2015-Jun-22 19:32N 38°02' E 023°36'0 0.0
2015-Jun-22 18:33N 38°02' E 023°36'0 0.0
2015-Jun-22 17:33N 38°02' E 023°36'0 0.0
2015-Jun-22 16:33N 38°02' E 023°36'0 0.0
2015-Jun-22 15:33N 38°02' E 023°36'0 0.0
2015-Jun-22 14:33N 38°02' E 023°36'0 0.0
2015-Jun-22 13:33N 38°02' E 023°36'0 0.0
2015-Jun-22 12:34N 38°02' E 023°36'0 0.0
2015-Jun-22 11:33N 38°02' E 023°36'0 0.0
2015-Jun-22 10:33N 38°02' E 023°36'0 0.0
2015-Jun-22 09:33N 38°02' E 023°36'0 0.0
2015-Jun-22 08:33N 38°02' E 023°36'0 0.0
2015-Jun-22 07:33N 38°02' E 023°36'0 0.0
2015-Jun-22 06:33N 38°02' E 023°36'0 0.0
2015-Jun-22 05:29N 38°02' E 023°36'0 0.0
2015-Jun-22 04:33N 38°02' E 023°36'0 0.0
2015-Jun-22 03:33N 38°02' E 023°36'0 0.0
2015-Jun-22 02:33N 38°02' E 023°36'0 0.0
2015-Jun-22 01:33N 38°02' E 023°36'0 0.0
2015-Jun-22 00:33N 38°02' E 023°36'0 0.0
2015-Jun-21 23:33N 38°02' E 023°36'0 0.0
2015-Jun-21 22:33N 38°02' E 023°36'0 0.0
2015-Jun-21 21:33N 38°02' E 023°36'0 0.0
2015-Jun-21 20:33N 38°02' E 023°36'0 0.0
2015-Jun-21 19:33N 38°02' E 023°36'0 0.0
2015-Jun-21 18:33N 38°02' E 023°36'0 0.0
2015-Jun-21 17:33N 38°02' E 023°36'0 0.0
2015-Jun-21 16:33N 38°02' E 023°36'0 0.0
2015-Jun-21 15:33N 38°02' E 023°36'  
Track history (hours):
 
Tides and Currents Weather Stations Pressure Air Temp Water Temp Dewpoint Dewpoint Depression Visibility Wind Speed Wind Dir Waves Ship Positions

Agia Marina

Last reported at 2015-Jul-01 14:33 UTC. Time now 2015-Jul-01 15:15 UTC.
Position N 36°03' E 026°23'.

Length 59 m; draft 2.5 m.

Type: Cargo ship. MMSI: 237042500.

Date/timePositionNaut miles runAvg speedWind from/ knotsBaromVisibWave heightAir tempDewpointWater temp
2015-Jul-01 14:33N 36°03' E 026°23'7 7.1
2015-Jul-01 13:33N 36°10' E 026°21'8 6.8
2015-Jul-01 12:18N 36°18' E 026°18'5 6.6
2015-Jul-01 11:33N 36°23' E 026°17'7 6.7
2015-Jul-01 10:33N 36°30' E 026°16'7 6.7
2015-Jul-01 09:33N 36°36' E 026°16'1 0.2
2015-Jul-01 04:32N 36°37' E 026°16'6 6.6
2015-Jul-01 03:33N 36°40' E 026°08'7 6.7
2015-Jul-01 02:32N 36°42' E 026°00'6 6.5
2015-Jul-01 01:32N 36°42' E 025°52'6 6.5
2015-Jul-01 00:33N 36°44' E 025°44'7 6.6
2015-Jun-30 23:33N 36°47' E 025°37'7 6.6
2015-Jun-30 22:33N 36°51' E 025°30'4 3.4
2015-Jun-30 21:28N 36°52' E 025°26'27 6.6
2015-Jun-30 17:21N 36°37' E 024°57'0 0.2
2015-Jun-30 16:32N 36°37' E 024°57'0 0.0
2015-Jun-30 15:31N 36°37' E 024°57'4 4.6
2015-Jun-30 14:33N 36°40' E 024°53'25 0.6
2015-Jun-28 21:07N 37°04' E 024°42'10 6.4
2015-Jun-28 19:33N 37°04' E 024°54'6 6.2
2015-Jun-28 18:33N 37°05' E 025°02'6 5.5
2015-Jun-28 17:33N 37°05' E 025°09'0 0.4
2015-Jun-28 16:33N 37°06' E 025°09'0 0.0
2015-Jun-28 15:33N 37°06' E 025°09'0 0.5
2015-Jun-28 14:32N 37°05' E 025°09'0 0.0
2015-Jun-28 13:32N 37°05' E 025°09'0 0.0
2015-Jun-28 12:28N 37°05' E 025°09'0 0.0
2015-Jun-28 11:25N 37°05' E 025°09'0 0.2
2015-Jun-28 10:33N 37°05' E 025°09'5 4.8
2015-Jun-28 09:33N 37°09' E 025°12'5 5.5
2015-Jun-28 08:33N 37°09' E 025°19'4 3.6
2015-Jun-28 07:33N 37°06' E 025°22'0 0.2
2015-Jun-28 06:33N 37°06' E 025°22'0 0.3
2015-Jun-28 05:33N 37°06' E 025°22'0 0.3
2015-Jun-28 04:33N 37°06' E 025°22'2 1.7
2015-Jun-28 03:33N 37°07' E 025°21'6 6.4
2015-Jun-28 02:33N 37°12' E 025°15'6 6.3
2015-Jun-28 01:33N 37°16' E 025°09'6 6.1
2015-Jun-28 00:33N 37°21' E 025°04'6 6.5
2015-Jun-27 23:33N 37°25' E 024°58'2 1.6
2015-Jun-27 22:33N 37°26' E 024°56'0 0.0
2015-Jun-27 21:32N 37°26' E 024°56'0 0.0
2015-Jun-27 20:33N 37°26' E 024°56'0 0.0
2015-Jun-27 19:33N 37°26' E 024°56'0 0.0
2015-Jun-27 18:33N 37°26' E 024°56'0 0.0
2015-Jun-27 17:34N 37°26' E 024°56'0 0.0
2015-Jun-27 16:33N 37°26' E 024°56'0 0.0
2015-Jun-27 15:33N 37°26' E 024°56'0 0.0
2015-Jun-27 14:33N 37°26' E 024°56'0 0.0
2015-Jun-27 13:33N 37°26' E 024°56'0 0.0
2015-Jun-27 12:33N 37°26' E 024°56'0 0.0
2015-Jun-27 11:33N 37°26' E 024°56'0 0.0
2015-Jun-27 10:33N 37°26' E 024°56'2 1.8
2015-Jun-27 09:33N 37°27' E 024°58'6 5.8
2015-Jun-27 08:33N 37°30' E 025°04'5 4.6
2015-Jun-27 07:33N 37°32' E 025°09'0 0.0
2015-Jun-27 06:33N 37°32' E 025°09'0 0.0
2015-Jun-27 05:33N 37°32' E 025°09'0 0.0
2015-Jun-27 04:33N 37°32' E 025°09'0 0.0
2015-Jun-27 03:33N 37°32' E 025°09'0 0.0
2015-Jun-27 02:33N 37°32' E 025°09'0 0.0
2015-Jun-27 01:33N 37°32' E 025°09'0 0.0
2015-Jun-27 00:33N 37°32' E 025°09'0 0.0
2015-Jun-26 23:33N 37°32' E 025°09'1 0.7
2015-Jun-26 22:33N 37°32' E 025°09'6 6.3
2015-Jun-26 21:33N 37°36' E 025°02'7 6.9
2015-Jun-26 20:33N 37°41' E 024°56'57 2.2
2015-Jun-25 18:33N 37°38' E 023°44'6 6.2
2015-Jun-25 17:33N 37°39' E 023°36'10 1.6
2015-Jun-25 11:15N 37°45' E 023°26'2 2.5
2015-Jun-25 10:33N 37°46' E 023°26'7 6.5
2015-Jun-25 09:33N 37°51' E 023°32'7 6.5
2015-Jun-25 08:33N 37°57' E 023°35'5 4.9
2015-Jun-25 07:33N 38°02' E 023°35'0 0.2
2015-Jun-25 06:33N 38°02' E 023°36'0 0.0
2015-Jun-25 05:33N 38°02' E 023°36'0 0.0
2015-Jun-25 04:33N 38°02' E 023°36'0 0.0
2015-Jun-25 03:33N 38°02' E 023°36'0 0.0
2015-Jun-25 02:33N 38°02' E 023°36'0 0.0
2015-Jun-25 01:33N 38°02' E 023°36'0 0.0
2015-Jun-25 00:33N 38°02' E 023°36'0 0.0
2015-Jun-24 23:33N 38°02' E 023°36'0 0.0
2015-Jun-24 22:30N 38°02' E 023°36'0 0.0
2015-Jun-24 21:33N 38°02' E 023°36'0 0.0
2015-Jun-24 20:33N 38°02' E 023°36'0 0.0
2015-Jun-24 19:33N 38°02' E 023°36'0 0.0
2015-Jun-24 18:33N 38°02' E 023°36'0 0.0
2015-Jun-24 17:33N 38°02' E 023°36'0 0.0
2015-Jun-24 16:33N 38°02' E 023°36'0 0.0
2015-Jun-24 15:33N 38°02' E 023°36'0 0.0
2015-Jun-24 14:33N 38°02' E 023°36'0 0.0
2015-Jun-24 13:33N 38°02' E 023°36'0 0.0
2015-Jun-24 12:33N 38°02' E 023°36'0 0.0
2015-Jun-24 11:33N 38°02' E 023°36'0 0.0
2015-Jun-24 10:33N 38°02' E 023°36'0 0.0
2015-Jun-24 09:33N 38°02' E 023°36'0 0.0
2015-Jun-24 08:33N 38°02' E 023°36'0 0.0
2015-Jun-24 07:33N 38°02' E 023°36'0 0.0
2015-Jun-24 06:33N 38°02' E 023°36'0 0.0
2015-Jun-24 05:33N 38°02' E 023°36'0 0.0
2015-Jun-24 04:33N 38°02' E 023°36'0 0.0
2015-Jun-24 03:33N 38°02' E 023°36'0 0.0
2015-Jun-24 02:33N 38°02' E 023°36'0 0.0
2015-Jun-24 01:33N 38°02' E 023°36'0 0.0
2015-Jun-24 00:33N 38°02' E 023°36'0 0.0
2015-Jun-23 23:33N 38°02' E 023°36'0 0.0
2015-Jun-23 22:33N 38°02' E 023°36'0 0.0
2015-Jun-23 21:33N 38°02' E 023°36'0 0.0
2015-Jun-23 20:33N 38°02' E 023°36'0 0.0
2015-Jun-23 19:30N 38°02' E 023°36'0 0.0
2015-Jun-23 19:05N 38°02' E 023°36'0 0.0
2015-Jun-22 19:32N 38°02' E 023°36'0 0.0
2015-Jun-22 18:33N 38°02' E 023°36'0 0.0
2015-Jun-22 17:33N 38°02' E 023°36'0 0.0
2015-Jun-22 16:33N 38°02' E 023°36'0 0.0
2015-Jun-22 15:33N 38°02' E 023°36'0 0.0
2015-Jun-22 14:33N 38°02' E 023°36'0 0.0
2015-Jun-22 13:33N 38°02' E 023°36'0 0.0
2015-Jun-22 12:34N 38°02' E 023°36'0 0.0
2015-Jun-22 11:33N 38°02' E 023°36'0 0.0
2015-Jun-22 10:33N 38°02' E 023°36'0 0.0
2015-Jun-22 09:33N 38°02' E 023°36'0 0.0
2015-Jun-22 08:33N 38°02' E 023°36'0 0.0
2015-Jun-22 07:33N 38°02' E 023°36'0 0.0
2015-Jun-22 06:33N 38°02' E 023°36'0 0.0
2015-Jun-22 05:29N 38°02' E 023°36'0 0.0
2015-Jun-22 04:33N 38°02' E 023°36'0 0.0
2015-Jun-22 03:33N 38°02' E 023°36'0 0.0
2015-Jun-22 02:33N 38°02' E 023°36'0 0.0
2015-Jun-22 01:33N 38°02' E 023°36'0 0.0
2015-Jun-22 00:33N 38°02' E 023°36'0 0.0
2015-Jun-21 23:33N 38°02' E 023°36'0 0.0
2015-Jun-21 22:33N 38°02' E 023°36'0 0.0
2015-Jun-21 21:33N 38°02' E 023°36'0 0.0
2015-Jun-21 20:33N 38°02' E 023°36'0 0.0
2015-Jun-21 19:33N 38°02' E 023°36'0 0.0
2015-Jun-21 18:33N 38°02' E 023°36'0 0.0
2015-Jun-21 17:33N 38°02' E 023°36'0 0.0
2015-Jun-21 16:33N 38°02' E 023°36'0 0.0
2015-Jun-21 15:33N 38°02' E 023°36'  

Dump ship's entire track history